createdAt,value
2022-11-24T00:00:16.236Z,19.60
2022-11-24T00:07:03.703Z,19.53
2022-11-24T00:13:27.908Z,19.46
2022-11-24T00:19:52.504Z,19.38
2022-11-24T00:26:17.133Z,19.29
2022-11-24T00:32:41.950Z,19.21
2022-11-24T00:39:06.548Z,19.14
2022-11-24T00:45:31.029Z,19.06
2022-11-24T00:51:58.467Z,18.99
2022-11-24T00:58:22.951Z,18.92
2022-11-24T01:04:47.592Z,18.85
2022-11-24T01:11:12.081Z,18.79
2022-11-24T01:17:36.576Z,18.73
2022-11-24T01:24:01.250Z,18.66
2022-11-24T01:30:25.550Z,18.59
2022-11-24T01:36:50.054Z,18.53
2022-11-24T01:43:18.070Z,18.48
2022-11-24T01:49:45.146Z,18.42
2022-11-24T01:56:12.216Z,18.36
2022-11-24T02:02:36.873Z,18.30
2022-11-24T02:09:01.885Z,18.26
2022-11-24T02:15:26.490Z,18.21
2022-11-24T02:21:51.140Z,18.15
2022-11-24T02:28:15.716Z,18.09
2022-11-24T02:34:40.231Z,18.04
2022-11-24T02:41:04.850Z,17.98
2022-11-24T02:47:29.854Z,17.93
2022-11-24T02:53:54.381Z,17.88
2022-11-24T03:00:19.021Z,17.83
2022-11-24T03:06:43.672Z,17.78
2022-11-24T03:13:11.308Z,17.73
2022-11-24T03:19:35.821Z,17.67
2022-11-24T03:26:00.340Z,17.64
2022-11-24T03:32:24.851Z,17.59
2022-11-24T03:38:49.414Z,17.54
2022-11-24T03:45:44.233Z,17.50
2022-11-24T03:52:00.650Z,17.45
2022-11-24T03:58:28.415Z,17.41
2022-11-24T04:04:53.050Z,17.37
2022-11-24T04:11:17.734Z,17.33
2022-11-24T04:17:42.267Z,17.28
2022-11-24T04:24:07.172Z,17.25
2022-11-24T04:30:31.715Z,17.20
2022-11-24T04:36:56.202Z,17.16
2022-11-24T04:43:20.849Z,17.13
2022-11-24T04:49:45.450Z,17.09
2022-11-24T04:56:10.051Z,17.04
2022-11-24T05:02:34.768Z,17.00
2022-11-24T05:09:02.179Z,16.96
2022-11-24T05:15:26.705Z,16.93
2022-11-24T05:21:51.227Z,16.88
2022-11-24T05:28:14.451Z,16.85
2022-11-24T05:34:38.919Z,16.82
2022-11-24T05:41:03.422Z,16.79
2022-11-24T05:47:27.944Z,16.81
2022-11-24T05:53:52.313Z,16.86
2022-11-24T06:00:16.663Z,16.93
2022-11-24T06:06:41.184Z,17.06
2022-11-24T06:13:05.653Z,17.20
2022-11-24T06:19:29.953Z,17.33
2022-11-24T06:25:54.271Z,17.48
2022-11-24T06:32:18.614Z,17.60
2022-11-24T06:38:41.628Z,17.75
2022-11-24T06:45:09.042Z,17.91
2022-11-24T06:51:33.835Z,18.05
2022-11-24T06:57:58.227Z,18.17
2022-11-24T07:04:22.563Z,18.28
2022-11-24T07:10:47.067Z,18.40
2022-11-24T07:17:19.168Z,18.49
2022-11-24T07:23:43.673Z,18.56
2022-11-24T07:30:08.101Z,18.61
2022-11-24T07:36:32.493Z,18.65
2022-11-24T07:42:56.843Z,18.72
2022-11-24T07:49:21.214Z,18.77
2022-11-24T07:55:45.848Z,18.83
2022-11-24T08:02:10.274Z,18.91
2022-11-24T08:08:34.760Z,18.98
2022-11-24T08:14:59.189Z,19.00
2022-11-24T08:21:23.748Z,19.02
2022-11-24T08:27:48.308Z,19.04
2022-11-24T08:34:12.658Z,19.10
2022-11-24T08:40:37.050Z,19.15
2022-11-24T08:47:01.371Z,19.20
2022-11-24T08:53:25.800Z,19.25
2022-11-24T08:59:50.291Z,19.32
2022-11-24T09:06:14.816Z,19.39
2022-11-24T09:12:39.214Z,19.47
2022-11-24T09:19:03.586Z,19.50
2022-11-24T09:25:27.914Z,19.51
2022-11-24T09:31:52.366Z,19.51
2022-11-24T09:38:16.738Z,19.54
2022-11-24T09:44:46.640Z,19.57
2022-11-24T09:51:17.171Z,19.58
2022-11-24T09:57:41.548Z,19.59
2022-11-24T10:04:15.151Z,19.63
2022-11-24T10:10:51.276Z,19.69
2022-11-24T10:17:24.745Z,19.71
2022-11-24T10:24:07.041Z,19.71
2022-11-24T10:30:31.377Z,19.70
2022-11-24T10:36:55.790Z,19.70
2022-11-24T10:43:20.241Z,19.71
2022-11-24T10:49:44.599Z,19.74
2022-11-24T10:56:08.981Z,19.78
2022-11-24T11:02:33.661Z,19.81
2022-11-24T11:09:16.597Z,19.82
2022-11-24T11:15:41.022Z,19.85
2022-11-24T11:22:08.453Z,19.88
2022-11-24T11:28:32.872Z,19.91
2022-11-24T11:34:59.966Z,19.95
2022-11-24T11:41:24.278Z,19.96
2022-11-24T11:47:48.662Z,19.97
2022-11-24T11:54:16.864Z,19.99
2022-11-24T12:00:41.313Z,20.02
2022-11-24T12:07:26.863Z,20.04
2022-11-24T12:14:03.060Z,20.07
2022-11-24T12:20:27.577Z,20.11
2022-11-24T12:27:04.320Z,20.12
2022-11-24T12:33:47.529Z,20.14
2022-11-24T12:40:17.925Z,20.16
2022-11-24T12:46:51.596Z,20.17
2022-11-24T12:53:25.529Z,20.19
2022-11-24T13:00:02.082Z,20.20
2022-11-24T13:06:28.132Z,20.22
2022-11-24T13:12:52.482Z,20.25
2022-11-24T13:19:33.956Z,20.27
2022-11-24T13:26:15.741Z,20.28
2022-11-24T13:32:42.848Z,20.31
2022-11-24T13:39:21.216Z,20.33
2022-11-24T13:45:48.483Z,20.36
2022-11-24T13:52:12.894Z,20.39
2022-11-24T13:58:42.992Z,20.38
2022-11-24T14:05:22.652Z,20.36
2022-11-24T14:11:53.776Z,20.37
2022-11-24T14:18:21.206Z,20.38
2022-11-24T14:24:45.805Z,20.39
2022-11-24T14:31:13.596Z,20.42
2022-11-24T14:37:38.092Z,20.42
2022-11-24T14:44:11.303Z,20.43
2022-11-24T14:50:35.633Z,20.46
2022-11-24T14:57:12.133Z,20.48
2022-11-24T15:03:42.196Z,20.47
2022-11-24T15:10:06.612Z,20.46
2022-11-24T15:16:36.983Z,20.46
2022-11-24T15:23:16.601Z,20.46
2022-11-24T15:29:40.989Z,20.48
2022-11-24T15:36:05.383Z,20.52
2022-11-24T15:42:29.735Z,20.55
2022-11-24T15:48:54.081Z,20.58
2022-11-24T15:55:18.629Z,20.58
2022-11-24T16:01:42.969Z,20.59
2022-11-24T16:08:07.329Z,20.62
2022-11-24T16:14:31.700Z,20.63
2022-11-24T16:20:46.163Z,20.62
2022-11-24T16:27:10.476Z,20.62
2022-11-24T16:33:35.107Z,20.64
2022-11-24T16:39:59.589Z,20.68
2022-11-24T16:46:23.967Z,20.71
2022-11-24T16:52:41.501Z,20.75
2022-11-24T16:59:05.864Z,20.79
2022-11-24T17:05:30.499Z,20.82
2022-11-24T17:11:57.494Z,20.83
2022-11-24T17:18:25.632Z,20.85
2022-11-24T17:24:40.036Z,20.86
2022-11-24T17:31:05.037Z,20.87
2022-11-24T17:37:29.320Z,20.90
2022-11-24T17:43:53.799Z,20.91
2022-11-24T17:50:22.442Z,20.92
2022-11-24T17:56:49.883Z,20.92
2022-11-24T18:03:14.289Z,20.92
2022-11-24T18:09:18.760Z,20.93
2022-11-24T18:15:43.279Z,20.94
2022-11-24T18:22:07.781Z,20.95
2022-11-24T18:28:32.184Z,20.97
2022-11-24T18:34:56.478Z,20.98
2022-11-24T18:41:11.889Z,21.00
2022-11-24T18:47:21.468Z,21.01
2022-11-24T18:53:45.780Z,21.03
2022-11-24T19:00:10.132Z,21.04
2022-11-24T19:06:33.922Z,21.02
2022-11-24T19:12:52.667Z,21.03
2022-11-24T19:19:17.048Z,21.03
2022-11-24T19:25:41.576Z,21.05
2022-11-24T19:32:06.026Z,21.07
2022-11-24T19:38:29.677Z,21.09
2022-11-24T19:44:56.698Z,21.11
2022-11-24T19:51:21.498Z,21.12
2022-11-24T19:57:45.918Z,21.15
2022-11-24T20:04:10.208Z,21.17
2022-11-24T20:10:31.393Z,21.20
2022-11-24T20:16:53.458Z,21.22
2022-11-24T20:23:17.936Z,21.23
2022-11-24T20:29:46.583Z,21.25
2022-11-24T20:36:11.457Z,21.25
2022-11-24T20:42:35.846Z,21.28
2022-11-24T20:49:00.141Z,21.29
2022-11-24T20:55:17.029Z,21.30
2022-11-24T21:01:43.985Z,21.31
2022-11-24T21:08:08.487Z,21.32
2022-11-24T21:14:35.323Z,21.35
2022-11-24T21:21:00.004Z,21.36
2022-11-24T21:27:24.523Z,21.37
2022-11-24T21:33:48.860Z,21.33
2022-11-24T21:40:04.440Z,21.28
2022-11-24T21:46:28.792Z,21.23
2022-11-24T21:52:53.142Z,21.18
2022-11-24T21:59:17.526Z,21.11
2022-11-24T22:05:41.976Z,21.04
2022-11-24T22:12:06.314Z,20.94
2022-11-24T22:18:30.695Z,20.83
2022-11-24T22:24:55.026Z,20.71
2022-11-24T22:31:19.456Z,20.59
2022-11-24T22:37:43.936Z,20.48
2022-11-24T22:44:08.355Z,20.38
2022-11-24T22:50:32.633Z,20.28
2022-11-24T22:56:56.580Z,20.18
2022-11-24T23:03:21.130Z,20.10
2022-11-24T23:09:45.611Z,20.00
2022-11-24T23:16:10.206Z,19.93
2022-11-24T23:22:34.750Z,19.84
2022-11-24T23:28:59.136Z,19.77
2022-11-24T23:35:23.454Z,19.69
2022-11-24T23:41:47.779Z,19.61
2022-11-24T23:48:12.153Z,19.53
